createdAt,value
2018-12-17T00:00:53.753Z,2.67
2018-12-17T00:03:19.916Z,2.27
2018-12-17T00:05:46.071Z,2.33
2018-12-17T00:08:12.228Z,2.20
2018-12-17T00:10:38.408Z,1.37
2018-12-17T00:13:04.544Z,1.67
2018-12-17T00:15:30.664Z,2.43
2018-12-17T00:17:56.813Z,1.80
2018-12-17T00:20:22.953Z,2.57
2018-12-17T00:22:49.069Z,3.07
2018-12-17T00:25:15.347Z,3.07
2018-12-17T00:27:41.528Z,2.73
2018-12-17T00:30:08.031Z,2.53
2018-12-17T00:32:34.173Z,2.03
2018-12-17T00:35:00.354Z,4.00
2018-12-17T00:37:26.480Z,2.80
2018-12-17T00:39:52.610Z,1.83
2018-12-17T00:42:18.727Z,4.90
2018-12-17T00:44:44.867Z,2.70
2018-12-17T00:47:11.042Z,4.97
2018-12-17T00:49:37.176Z,3.57
2018-12-17T00:52:03.299Z,2.47
2018-12-17T00:54:29.452Z,2.43
2018-12-17T00:56:55.603Z,3.10
2018-12-17T00:59:21.739Z,2.37
2018-12-17T01:01:47.924Z,5.27
2018-12-17T01:04:14.063Z,3.07
2018-12-17T01:06:40.230Z,3.40
2018-12-17T01:09:06.394Z,3.37
2018-12-17T01:11:32.578Z,2.60
2018-12-17T01:13:58.802Z,3.07
2018-12-17T01:16:26.520Z,3.80
2018-12-17T01:18:52.890Z,2.83
2018-12-17T01:21:19.709Z,2.53
2018-12-17T01:23:46.084Z,2.33
2018-12-17T01:26:12.483Z,2.70
2018-12-17T01:28:38.963Z,2.73
2018-12-17T01:31:05.129Z,2.80
2018-12-17T01:33:31.287Z,3.90
2018-12-17T01:35:57.423Z,3.30
2018-12-17T01:38:23.550Z,3.17
2018-12-17T01:40:49.688Z,3.43
2018-12-17T01:43:15.835Z,2.30
2018-12-17T01:45:41.959Z,3.13
2018-12-17T01:48:08.071Z,2.67
2018-12-17T01:50:34.212Z,3.37
2018-12-17T01:53:00.339Z,2.40
2018-12-17T01:55:26.503Z,3.40
2018-12-17T01:57:52.639Z,2.80
2018-12-17T02:00:18.791Z,3.50
2018-12-17T02:02:44.908Z,4.00
2018-12-17T02:05:11.091Z,2.67
2018-12-17T02:07:37.219Z,3.80
2018-12-17T02:10:03.594Z,4.50
2018-12-17T02:12:29.753Z,2.97
2018-12-17T02:14:55.884Z,4.10
2018-12-17T02:17:22.031Z,3.80
2018-12-17T02:19:48.157Z,5.03
2018-12-17T02:22:14.287Z,5.33
2018-12-17T02:24:40.439Z,3.63
2018-12-17T02:27:06.583Z,3.90
2018-12-17T02:29:32.739Z,4.93
2018-12-17T02:31:58.898Z,4.10
2018-12-17T02:34:25.864Z,5.10
2018-12-17T02:36:52.004Z,3.63
2018-12-17T02:39:18.143Z,3.30
2018-12-17T02:41:44.661Z,2.97
2018-12-17T02:44:10.823Z,5.27
2018-12-17T02:46:36.988Z,3.23
2018-12-17T02:49:03.185Z,3.83
2018-12-17T02:51:29.318Z,3.20
2018-12-17T02:53:55.468Z,2.67
2018-12-17T02:56:21.609Z,2.80
2018-12-17T02:58:47.788Z,2.57
2018-12-17T03:01:13.912Z,3.60
2018-12-17T03:03:40.039Z,2.97
2018-12-17T03:06:06.230Z,6.50
2018-12-17T03:08:32.435Z,3.23
2018-12-17T03:10:58.580Z,3.00
2018-12-17T03:13:24.726Z,3.57
2018-12-17T03:15:50.894Z,2.40
2018-12-17T03:18:17.023Z,4.07
2018-12-17T03:20:43.169Z,2.17
2018-12-17T03:23:09.340Z,2.97
2018-12-17T03:25:35.481Z,1.80
2018-12-17T03:28:01.702Z,3.13
2018-12-17T03:30:27.965Z,2.20
2018-12-17T03:32:54.110Z,2.00
2018-12-17T03:35:20.264Z,2.70
2018-12-17T03:37:46.396Z,2.30
2018-12-17T03:40:12.540Z,4.30
2018-12-17T03:42:38.663Z,2.43
2018-12-17T03:45:05.455Z,2.53
2018-12-17T03:47:31.578Z,2.63
2018-12-17T03:49:57.729Z,1.97
2018-12-17T03:52:23.877Z,2.20
2018-12-17T03:54:50.072Z,3.30
2018-12-17T03:57:16.186Z,2.57
2018-12-17T03:59:42.392Z,3.50
2018-12-17T04:02:08.511Z,2.10
2018-12-17T04:04:34.639Z,2.40
2018-12-17T04:07:00.775Z,2.87
2018-12-17T04:09:26.977Z,2.77
2018-12-17T04:11:53.095Z,2.77
2018-12-17T04:14:19.241Z,2.30
2018-12-17T04:16:45.402Z,2.63
2018-12-17T04:19:11.530Z,1.80
2018-12-17T04:21:37.669Z,2.87
2018-12-17T04:24:03.826Z,2.67
2018-12-17T04:26:29.956Z,2.63
2018-12-17T04:28:56.113Z,4.30
2018-12-17T04:31:22.238Z,4.07
2018-12-17T04:33:48.401Z,3.13
2018-12-17T04:36:14.553Z,2.90
2018-12-17T04:38:40.676Z,3.30
2018-12-17T04:41:06.813Z,3.60
2018-12-17T04:43:32.933Z,3.57
2018-12-17T04:45:59.057Z,2.80
2018-12-17T04:48:25.188Z,3.13
2018-12-17T04:50:51.365Z,2.87
2018-12-17T04:53:17.476Z,3.03
2018-12-17T04:55:43.616Z,2.80
2018-12-17T04:58:09.895Z,5.37
2018-12-17T05:00:36.022Z,3.27
2018-12-17T05:03:02.218Z,3.27
2018-12-17T05:05:28.417Z,2.97
2018-12-17T05:07:54.550Z,6.47
2018-12-17T05:10:20.690Z,3.67
2018-12-17T05:12:46.810Z,4.53
2018-12-17T05:15:12.973Z,5.80
2018-12-17T05:17:39.117Z,2.40
2018-12-17T05:20:05.456Z,2.47
2018-12-17T05:22:31.571Z,3.30
2018-12-17T05:24:57.719Z,4.57
2018-12-17T05:27:23.835Z,3.20
2018-12-17T05:29:49.965Z,3.60
2018-12-17T05:32:16.095Z,2.90
2018-12-17T05:34:42.244Z,3.83
2018-12-17T05:37:08.399Z,3.33
2018-12-17T05:39:34.523Z,4.00
2018-12-17T05:42:00.640Z,3.73
2018-12-17T05:44:26.772Z,4.13
2018-12-17T05:46:52.910Z,3.60
2018-12-17T05:49:19.041Z,3.23
2018-12-17T05:51:45.180Z,3.00
2018-12-17T05:54:11.294Z,4.40
2018-12-17T05:56:37.468Z,3.90
2018-12-17T05:59:03.595Z,6.33
2018-12-17T06:01:29.737Z,3.60
2018-12-17T06:03:55.855Z,4.00
2018-12-17T06:06:21.991Z,4.03
2018-12-17T06:08:48.114Z,4.20
2018-12-17T06:11:14.257Z,3.83
2018-12-17T06:13:40.444Z,2.97
2018-12-17T06:16:06.585Z,6.37
2018-12-17T06:18:32.725Z,2.90
2018-12-17T06:20:58.995Z,3.17
2018-12-17T06:23:25.124Z,4.47
2018-12-17T06:25:51.230Z,3.13
2018-12-17T06:28:17.378Z,3.47
2018-12-17T06:30:43.490Z,3.60
2018-12-17T06:33:15.513Z,4.07
2018-12-17T06:35:37.759Z,3.60
2018-12-17T06:38:03.931Z,4.37
2018-12-17T06:40:30.066Z,3.70
2018-12-17T06:42:56.236Z,5.43
2018-12-17T06:45:22.378Z,5.40
2018-12-17T06:47:48.525Z,5.80
2018-12-17T06:50:14.643Z,6.07
2018-12-17T06:52:40.816Z,4.10
2018-12-17T06:55:06.960Z,3.67
2018-12-17T06:57:33.088Z,5.80
2018-12-17T06:59:59.199Z,8.80
2018-12-17T07:02:25.457Z,6.77
2018-12-17T07:04:51.585Z,4.80
2018-12-17T07:07:17.768Z,3.87
2018-12-17T07:09:43.897Z,5.27
2018-12-17T07:12:10.063Z,4.07
2018-12-17T07:14:36.591Z,3.87
2018-12-17T07:17:03.171Z,5.93
2018-12-17T07:19:29.324Z,3.87
2018-12-17T07:21:55.465Z,5.07
2018-12-17T07:24:21.634Z,4.23
2018-12-17T07:26:47.779Z,3.87
2018-12-17T07:29:13.918Z,4.67
2018-12-17T07:31:40.083Z,5.73
2018-12-17T07:34:06.234Z,5.67
2018-12-17T07:36:32.359Z,6.07
2018-12-17T07:38:58.495Z,3.73
2018-12-17T07:41:24.606Z,6.87
2018-12-17T07:43:50.875Z,4.80
2018-12-17T07:46:17.012Z,4.67
2018-12-17T07:48:43.148Z,6.33
2018-12-17T07:51:09.296Z,7.30
2018-12-17T07:53:35.425Z,8.17
2018-12-17T07:56:01.574Z,7.43
2018-12-17T07:58:27.720Z,6.70
2018-12-17T08:00:53.851Z,8.53
2018-12-17T08:03:19.989Z,5.07
2018-12-17T08:05:46.114Z,5.17
2018-12-17T08:08:12.256Z,7.50
2018-12-17T08:10:38.379Z,5.73
2018-12-17T08:13:05.071Z,10.83
2018-12-17T08:15:32.063Z,6.80
2018-12-17T08:18:21.375Z,7.70
2018-12-17T08:20:49.458Z,6.17
2018-12-17T08:23:16.044Z,8.27
2018-12-17T08:25:42.175Z,5.83
2018-12-17T08:28:08.307Z,5.40
2018-12-17T08:30:34.464Z,7.93
2018-12-17T08:33:00.581Z,8.37
2018-12-17T08:35:26.720Z,7.17
2018-12-17T08:37:52.863Z,7.87
2018-12-17T08:40:19.139Z,7.07
2018-12-17T08:42:45.279Z,5.57
2018-12-17T08:45:11.451Z,7.53
2018-12-17T08:47:37.583Z,4.83
2018-12-17T08:50:04.189Z,7.73
2018-12-17T08:52:30.320Z,5.73
2018-12-17T08:54:56.695Z,7.80
2018-12-17T08:57:22.816Z,7.40
2018-12-17T08:59:48.976Z,6.80
2018-12-17T09:02:15.118Z,9.63
2018-12-17T09:04:41.269Z,5.90
2018-12-17T09:07:07.431Z,7.90
2018-12-17T09:09:33.564Z,6.07
2018-12-17T09:11:59.709Z,8.07
2018-12-17T09:14:25.840Z,8.70
2018-12-17T09:16:51.982Z,5.97
2018-12-17T09:19:18.111Z,8.73
2018-12-17T09:21:44.263Z,8.50
2018-12-17T09:24:10.409Z,6.50
2018-12-17T09:26:36.565Z,9.07
2018-12-17T09:29:02.928Z,5.80
2018-12-17T09:31:29.084Z,8.03
2018-12-17T09:33:55.222Z,6.53
2018-12-17T09:36:21.539Z,8.10
2018-12-17T09:38:47.679Z,5.43
2018-12-17T09:41:13.804Z,8.50
2018-12-17T09:43:39.929Z,8.20
2018-12-17T09:46:06.200Z,8.17
2018-12-17T09:48:32.321Z,10.00
2018-12-17T09:50:58.499Z,6.77
2018-12-17T09:53:24.636Z,7.00
2018-12-17T09:55:50.760Z,8.17
2018-12-17T09:58:16.888Z,12.60
2018-12-17T10:00:43.021Z,10.03
2018-12-17T10:03:09.219Z,7.10
2018-12-17T10:05:35.346Z,8.73
2018-12-17T10:08:01.483Z,7.97
2018-12-17T10:10:27.648Z,7.20
2018-12-17T10:12:53.794Z,7.53
2018-12-17T10:15:19.920Z,7.73
2018-12-17T10:17:46.064Z,10.93
2018-12-17T10:20:12.196Z,9.80
2018-12-17T10:22:38.331Z,9.67
2018-12-17T10:25:04.579Z,11.50
2018-12-17T10:27:30.695Z,7.57
2018-12-17T10:29:56.824Z,8.23
2018-12-17T10:32:22.962Z,9.13
2018-12-17T10:34:49.120Z,6.47
2018-12-17T10:37:15.261Z,5.93
2018-12-17T10:39:41.403Z,11.77
2018-12-17T10:42:07.629Z,6.13
2018-12-17T10:44:33.764Z,7.07
2018-12-17T10:46:59.901Z,7.47
2018-12-17T10:49:26.028Z,8.37
2018-12-17T10:51:52.162Z,8.33
2018-12-17T10:54:18.308Z,7.30
2018-12-17T10:56:44.436Z,7.20
2018-12-17T10:59:10.575Z,9.67
2018-12-17T11:01:42.800Z,9.73
2018-12-17T11:04:10.379Z,9.60
2018-12-17T11:06:36.707Z,8.87
2018-12-17T11:09:05.504Z,6.57
2018-12-17T11:11:31.709Z,6.83
2018-12-17T11:13:57.918Z,9.47
2018-12-17T11:16:24.091Z,6.73
2018-12-17T11:18:50.235Z,6.43
2018-12-17T11:21:16.482Z,9.27
2018-12-17T11:23:42.626Z,7.87
2018-12-17T11:26:08.767Z,8.27
2018-12-17T11:28:34.922Z,9.70
2018-12-17T11:31:01.039Z,12.00
2018-12-17T11:33:27.194Z,8.67
2018-12-17T11:35:53.331Z,6.47
2018-12-17T11:38:19.450Z,7.90
2018-12-17T11:40:45.619Z,9.97
2018-12-17T11:43:11.735Z,9.23
2018-12-17T11:45:38.003Z,7.73
2018-12-17T11:48:04.190Z,8.03
2018-12-17T11:50:30.321Z,10.27
2018-12-17T11:52:56.466Z,10.27
2018-12-17T11:55:22.607Z,11.47
2018-12-17T11:57:55.520Z,8.77
2018-12-17T12:00:23.743Z,8.23
2018-12-17T12:02:49.875Z,9.80
2018-12-17T12:05:16.004Z,9.77
2018-12-17T12:07:42.135Z,8.53
2018-12-17T12:10:08.259Z,10.17
2018-12-17T12:12:34.372Z,9.03
2018-12-17T12:15:00.503Z,9.67
2018-12-17T12:17:26.625Z,8.53
2018-12-17T12:19:52.772Z,9.27
2018-12-17T12:22:18.920Z,9.00
2018-12-17T12:24:45.020Z,9.73
2018-12-17T12:27:11.194Z,11.87
2018-12-17T12:29:37.314Z,8.97
2018-12-17T12:32:03.486Z,10.60
2018-12-17T12:34:29.634Z,11.40
2018-12-17T12:36:55.755Z,9.80
2018-12-17T12:39:22.098Z,11.97
2018-12-17T12:41:48.256Z,11.10
2018-12-17T12:44:14.391Z,11.97
2018-12-17T12:46:40.507Z,11.53
2018-12-17T12:49:06.634Z,12.07
2018-12-17T12:51:33.056Z,13.23
2018-12-17T12:53:59.239Z,11.27
2018-12-17T12:56:25.409Z,8.37
2018-12-17T12:58:51.667Z,11.63
2018-12-17T13:01:17.803Z,11.50
2018-12-17T13:03:43.923Z,10.40
2018-12-17T13:06:10.070Z,12.97
2018-12-17T13:08:36.200Z,9.90
2018-12-17T13:11:02.371Z,9.80
2018-12-17T13:13:28.522Z,11.13
2018-12-17T13:15:54.647Z,9.77
2018-12-17T13:18:20.804Z,9.37
2018-12-17T13:20:46.932Z,9.70
2018-12-17T13:23:13.057Z,10.70
2018-12-17T13:25:39.727Z,11.80
2018-12-17T13:28:05.918Z,10.00
2018-12-17T13:30:32.182Z,12.57
2018-12-17T13:32:58.303Z,9.90
2018-12-17T13:35:24.431Z,11.70
2018-12-17T13:37:50.555Z,9.77
2018-12-17T13:40:16.767Z,14.20
2018-12-17T13:42:42.905Z,13.73
2018-12-17T13:45:09.211Z,10.33
2018-12-17T13:47:35.338Z,12.93
2018-12-17T13:50:03.647Z,11.47
2018-12-17T13:52:35.795Z,13.40
2018-12-17T13:55:01.972Z,9.67
2018-12-17T13:57:28.086Z,10.43
2018-12-17T13:59:54.224Z,11.50
2018-12-17T14:02:20.362Z,10.40
2018-12-17T14:04:46.487Z,9.93
2018-12-17T14:07:12.617Z,10.07
2018-12-17T14:09:40.815Z,11.73
2018-12-17T14:12:06.959Z,10.10
2018-12-17T14:14:33.070Z,9.73
2018-12-17T14:17:05.426Z,11.67
2018-12-17T14:19:32.614Z,13.80
2018-12-17T14:21:58.779Z,10.17
2018-12-17T14:24:24.924Z,12.13
2018-12-17T14:26:51.062Z,11.80
2018-12-17T14:29:17.176Z,11.63
2018-12-17T14:31:43.315Z,10.43
2018-12-17T14:34:09.448Z,11.70
2018-12-17T14:36:35.572Z,12.07
2018-12-17T14:39:03.082Z,12.83
2018-12-17T14:41:29.223Z,10.83
2018-12-17T14:43:57.399Z,12.77
2018-12-17T14:46:23.511Z,11.20
2018-12-17T14:48:49.639Z,9.67
2018-12-17T14:51:15.762Z,12.87
2018-12-17T14:53:41.906Z,12.23
2018-12-17T14:56:08.044Z,14.00
2018-12-17T14:58:34.199Z,13.87
2018-12-17T15:01:00.357Z,13.33
2018-12-17T15:03:26.472Z,11.93
2018-12-17T15:05:52.611Z,13.10
2018-12-17T15:08:18.719Z,12.93
2018-12-17T15:10:44.887Z,11.77
2018-12-17T15:13:11.052Z,10.63
2018-12-17T15:15:37.212Z,12.03
2018-12-17T15:18:03.390Z,14.30
2018-12-17T15:20:29.591Z,15.10
2018-12-17T15:22:55.721Z,13.53
2018-12-17T15:25:21.877Z,13.43
2018-12-17T15:27:48.053Z,13.67
2018-12-17T15:30:14.384Z,13.10
2018-12-17T15:32:40.580Z,12.93
2018-12-17T15:35:06.724Z,12.33
2018-12-17T15:37:32.845Z,9.73
2018-12-17T15:39:59.128Z,12.07
2018-12-17T15:42:25.269Z,11.40
2018-12-17T15:44:51.394Z,14.57
2018-12-17T15:47:17.535Z,9.93
2018-12-17T15:49:43.659Z,11.10
2018-12-17T15:52:09.795Z,9.70
2018-12-17T15:54:35.906Z,8.87
2018-12-17T15:57:02.040Z,10.50
2018-12-17T15:59:28.305Z,10.77
2018-12-17T16:01:54.475Z,11.07
2018-12-17T16:04:20.593Z,10.43
2018-12-17T16:06:46.733Z,12.40
2018-12-17T16:09:12.863Z,10.33
2018-12-17T16:11:39.000Z,9.37
2018-12-17T16:14:05.116Z,9.07
2018-12-17T16:16:31.242Z,11.93
2018-12-17T16:18:57.407Z,8.37
2018-12-17T16:21:23.526Z,9.27
2018-12-17T16:23:49.655Z,8.93
2018-12-17T16:26:15.776Z,11.50
2018-12-17T16:28:41.904Z,10.10
2018-12-17T16:31:08.027Z,11.17
2018-12-17T16:33:34.203Z,10.07
2018-12-17T16:36:00.599Z,9.10
2018-12-17T16:38:26.747Z,7.43
2018-12-17T16:40:52.889Z,10.43
2018-12-17T16:43:19.079Z,9.90
2018-12-17T16:45:45.469Z,7.97
2018-12-17T16:48:11.601Z,9.70
2018-12-17T16:50:37.753Z,9.77
2018-12-17T16:53:03.909Z,8.47
2018-12-17T16:55:30.039Z,10.60
2018-12-17T16:57:56.207Z,10.73
2018-12-17T17:00:22.326Z,9.57
2018-12-17T17:02:48.539Z,13.83
2018-12-17T17:05:14.648Z,12.83
2018-12-17T17:07:40.758Z,14.03
2018-12-17T17:10:08.250Z,10.40
2018-12-17T17:12:34.399Z,12.33
2018-12-17T17:15:00.573Z,12.73
2018-12-17T17:17:26.707Z,13.57
2018-12-17T17:19:52.839Z,12.33
2018-12-17T17:22:18.978Z,15.27
2018-12-17T17:24:45.117Z,14.27
2018-12-17T17:27:11.394Z,13.53
2018-12-17T17:29:37.536Z,12.73
2018-12-17T17:32:03.684Z,12.77
2018-12-17T17:34:29.823Z,12.93
2018-12-17T17:36:55.959Z,14.53
2018-12-17T17:39:22.177Z,11.90
2018-12-17T17:41:48.391Z,13.13
2018-12-17T17:44:14.540Z,14.13
2018-12-17T17:46:40.672Z,12.07
2018-12-17T17:49:06.838Z,15.60
2018-12-17T17:51:33.003Z,10.00
2018-12-17T17:53:59.157Z,14.93
2018-12-17T17:56:25.275Z,13.83
2018-12-17T17:58:51.411Z,14.67
2018-12-17T18:01:17.551Z,13.03
2018-12-17T18:03:43.684Z,15.00
2018-12-17T18:06:16.044Z,15.57
2018-12-17T18:08:37.978Z,13.00
2018-12-17T18:11:04.122Z,13.03
2018-12-17T18:13:30.264Z,14.00
2018-12-17T18:15:56.388Z,14.20
2018-12-17T18:18:22.508Z,14.73
2018-12-17T18:20:48.668Z,14.17
2018-12-17T18:23:14.779Z,11.47
2018-12-17T18:25:40.931Z,13.93
2018-12-17T18:28:07.071Z,13.63
2018-12-17T18:30:33.217Z,14.77
2018-12-17T18:32:59.339Z,15.10
2018-12-17T18:35:25.494Z,14.77
2018-12-17T18:37:51.622Z,13.10
2018-12-17T18:40:17.749Z,13.83
2018-12-17T18:42:43.880Z,13.07
2018-12-17T18:45:10.295Z,11.93
2018-12-17T18:47:36.427Z,14.17
2018-12-17T18:50:03.191Z,14.70
2018-12-17T18:52:29.327Z,14.07
2018-12-17T18:54:55.432Z,12.43
2018-12-17T18:57:21.563Z,15.50
2018-12-17T18:59:47.710Z,13.97
2018-12-17T19:02:13.859Z,15.87
2018-12-17T19:04:40.008Z,14.83
2018-12-17T19:07:06.141Z,18.13
2018-12-17T19:09:32.278Z,14.67
2018-12-17T19:11:58.399Z,13.83
2018-12-17T19:14:24.530Z,14.43
2018-12-17T19:16:50.663Z,14.80
2018-12-17T19:19:16.806Z,17.70
2018-12-17T19:21:42.939Z,14.33
2018-12-17T19:24:09.052Z,15.30
2018-12-17T19:26:35.166Z,19.70
2018-12-17T19:29:01.307Z,18.40
2018-12-17T19:31:34.380Z,15.50
2018-12-17T19:33:55.660Z,14.67
2018-12-17T19:36:21.783Z,15.50
2018-12-17T19:38:47.930Z,15.60
2018-12-17T19:41:14.084Z,16.50
2018-12-17T19:43:40.228Z,15.27
2018-12-17T19:46:06.416Z,16.83
2018-12-17T19:48:32.527Z,15.70
2018-12-17T19:50:58.674Z,15.27
2018-12-17T19:53:24.811Z,16.67
2018-12-17T19:55:50.939Z,14.93
2018-12-17T19:58:17.087Z,13.90
2018-12-17T20:00:43.206Z,15.13
2018-12-17T20:03:09.357Z,14.10
2018-12-17T20:05:35.502Z,19.27
2018-12-17T20:08:01.620Z,14.87
2018-12-17T20:10:27.767Z,14.63
2018-12-17T20:12:53.903Z,15.80
2018-12-17T20:15:20.047Z,16.90
2018-12-17T20:17:46.180Z,15.67
2018-12-17T20:20:12.323Z,15.50
2018-12-17T20:22:38.442Z,16.47
2018-12-17T20:25:04.602Z,17.73
2018-12-17T20:27:30.742Z,17.07
2018-12-17T20:29:56.899Z,14.60
2018-12-17T20:32:23.018Z,15.93
2018-12-17T20:34:49.151Z,16.90
2018-12-17T20:37:15.267Z,14.80
2018-12-17T20:39:42.193Z,16.50
2018-12-17T20:42:08.323Z,18.27
2018-12-17T20:44:34.610Z,13.63
2018-12-17T20:47:00.715Z,20.10
2018-12-17T20:49:26.823Z,17.90
2018-12-17T20:51:52.951Z,18.37
2018-12-17T20:54:19.103Z,14.77
2018-12-17T20:56:45.239Z,20.10
2018-12-17T20:59:11.361Z,16.17
2018-12-17T21:01:37.544Z,15.80
2018-12-17T21:04:03.691Z,17.00
2018-12-17T21:06:29.813Z,16.90
2018-12-17T21:08:55.967Z,17.73
2018-12-17T21:11:22.119Z,19.20
2018-12-17T21:13:48.233Z,17.47
2018-12-17T21:16:14.361Z,18.90
2018-12-17T21:18:41.403Z,16.30
2018-12-17T21:21:07.545Z,15.97
2018-12-17T21:23:33.803Z,18.27
2018-12-17T21:25:59.954Z,17.17
2018-12-17T21:28:26.068Z,16.97
2018-12-17T21:30:52.191Z,16.77
2018-12-17T21:33:18.308Z,17.03
2018-12-17T21:35:45.186Z,18.27
2018-12-17T21:38:11.311Z,16.03
2018-12-17T21:40:37.443Z,18.43
2018-12-17T21:43:03.611Z,17.47
2018-12-17T21:45:29.733Z,16.60
2018-12-17T21:47:55.911Z,14.97
2018-12-17T21:50:22.031Z,16.30
2018-12-17T21:52:48.156Z,16.40
2018-12-17T21:55:14.287Z,16.00
2018-12-17T21:57:40.428Z,16.67
2018-12-17T22:00:07.103Z,15.97
2018-12-17T22:02:33.248Z,16.50
2018-12-17T22:04:59.369Z,20.97
2018-12-17T22:07:25.519Z,19.20
2018-12-17T22:09:51.671Z,19.70
2018-12-17T22:12:17.823Z,18.70
2018-12-17T22:14:43.959Z,22.53
2018-12-17T22:17:10.083Z,16.03
2018-12-17T22:19:36.215Z,18.07
2018-12-17T22:22:02.473Z,19.17
2018-12-17T22:24:28.575Z,18.17
2018-12-17T22:26:54.747Z,16.93
2018-12-17T22:29:20.888Z,17.00
2018-12-17T22:31:47.015Z,17.17
2018-12-17T22:34:13.135Z,17.47
2018-12-17T22:36:39.255Z,17.00
2018-12-17T22:39:05.524Z,19.33
2018-12-17T22:41:32.477Z,18.07
2018-12-17T22:43:58.655Z,21.03
2018-12-17T22:46:24.774Z,19.20
2018-12-17T22:48:50.907Z,18.67
2018-12-17T22:51:17.049Z,20.23
2018-12-17T22:53:43.175Z,19.27
2018-12-17T22:56:09.283Z,15.97
2018-12-17T22:58:35.412Z,19.53
2018-12-17T23:01:01.786Z,20.27
2018-12-17T23:03:27.947Z,19.43
2018-12-17T23:05:54.183Z,17.03
2018-12-17T23:08:20.370Z,22.47
2018-12-17T23:10:58.769Z,21.17
2018-12-17T23:13:37.214Z,20.63
2018-12-17T23:16:15.681Z,18.20
2018-12-17T23:18:41.562Z,17.93
2018-12-17T23:21:07.927Z,18.07
2018-12-17T23:23:34.079Z,18.70
2018-12-17T23:26:00.193Z,18.47
2018-12-17T23:28:26.471Z,19.10
2018-12-17T23:30:52.615Z,22.43
2018-12-17T23:33:18.746Z,19.40
2018-12-17T23:35:44.890Z,24.07
2018-12-17T23:38:10.995Z,20.13
2018-12-17T23:40:37.159Z,21.27
2018-12-17T23:43:03.290Z,20.80
2018-12-17T23:45:29.431Z,20.93
2018-12-17T23:47:55.546Z,19.30
2018-12-17T23:50:21.695Z,20.70
2018-12-17T23:52:47.800Z,20.53
2018-12-17T23:55:13.951Z,19.50
2018-12-17T23:57:40.111Z,22.13
